Airfield :
LOGIN :

Register | Disclaimer

   EN    FR    IT 

 










Legend :    VFR   Marginal VFR   IFR   Intensive IFR   Very Intensive IFR
Visi :
Ceiling :
>= 8 km
>= 3000ft
5 to 8 km
1000 to 3000 ft
1500m to 5 km
500 to 1000 ft
800 to 1500m
200 to 500 ft
< 800m
< 200 ft
Symbols :   Thunderstorms  Fog  Heavy snow  Heavy precipitations  Wind > 20 kt
SIGMETs :     Misc.  Thunderstorms  Icing  Turbulence  Mountain Waves  Volcanic Ashes






- Airport Elevation : 291 ft
- IATA code : ORY


LFPO - Paris-Orly

CURRENT METAR :
  • 252200Z 27009KT CAVOK 10/05 Q1009 NOSIG

EXPIRED METARs :
  • 252130Z 27011KT CAVOK 10/05 Q1008 NOSIG
  • 252100Z 26009KT CAVOK 10/06 Q1008 NOSIG
  • 252030Z 26010KT CAVOK 11/05 Q1008 NOSIG
  • 252000Z 27011KT CAVOK 11/05 Q1008 NOSIG
  • 251930Z 27011KT CAVOK 11/05 Q1008 NOSIG

TAF AMD TAF LFPO
Valid from the 25 at 18:00 until the 27 at 00:00 UTC


251731Z 2518/2624 28012G25KT CAVOK
BECMG 2618/2621 -RA BKN025
ATIS : +33 1 49 75 65 80



MET'MAP, your aeronautical weather chart ! - Copyright ORBIFLY December 2007 - Disclaimer

ORBIFLY MET'MAP TEAM :

Programming & Development : Alexandra Zaïnal
Concept & original design : Baudouin d'Aumeries
Assistance for programming : Marc-Olivier Méhu
Technical & hardware support : Manuel Goepfert

Contact : metmap@orbifly.com




SOURCES & CREDITS :

   NOAA